Time;durP1;ratioP1;P1;durP2;ratioP2;P2;SDS_P1;SDS_P2;PMS_P1;PMS_P2;Temp;Humidity;BMP_temperature;BMP_pressure;BME280_temperature;BME280_humidity;BME280_pressure;Samples;Min_cycle;Max_cycle;Signal;HPM_P1;HPM_P2
2021/06/24 00:01:13;;;;;;;5.83;3.33;;;16.20;99.90;;;;;;5103953;28;20197;-49
2021/06/24 00:03:40;;;;;;;6.07;3.20;;;16.20;99.90;;;;;;5105491;28;20211;-44
2021/06/24 00:06:07;;;;;;;5.60;2.93;;;16.10;99.90;;;;;;5098792;28;20221;-49
2021/06/24 00:08:36;;;;;;;4.37;3.07;;;16.10;99.90;;;;;;5096415;28;20181;-45
2021/06/24 00:11:06;;;;;;;5.57;2.93;;;16.10;99.90;;;;;;5107091;28;20192;-45
2021/06/24 00:13:34;;;;;;;3.60;2.87;;;16.10;99.90;;;;;;5082997;28;20381;-46
2021/06/24 00:16:01;;;;;;;3.93;2.93;;;16.10;99.90;;;;;;5098626;28;20201;-46
2021/06/24 00:18:28;;;;;;;3.87;2.97;;;16.10;99.90;;;;;;5093922;28;20284;-44
2021/06/24 00:20:55;;;;;;;4.80;3.03;;;16.10;99.90;;;;;;5106343;28;20193;-44
2021/06/24 00:23:23;;;;;;;6.17;3.60;;;16.00;99.90;;;;;;5090541;28;20232;-49
2021/06/24 00:25:51;;;;;;;7.00;3.27;;;16.00;99.90;;;;;;5106609;28;20190;-44
2021/06/24 00:28:18;;;;;;;5.17;2.80;;;15.90;99.90;;;;;;5093753;28;20197;-49
2021/06/24 00:30:47;;;;;;;6.13;3.40;;;15.90;99.90;;;;;;5096642;27;20415;-45
2021/06/24 00:33:14;;;;;;;5.93;2.97;;;15.80;99.90;;;;;;5104548;28;20642;-48
2021/06/24 00:35:41;;;;;;;5.63;3.37;;;15.90;99.90;;;;;;5104808;28;20441;-47
2021/06/24 00:38:08;;;;;;;6.33;3.03;;;15.90;99.90;;;;;;5098655;28;20201;-46
2021/06/24 00:40:37;;;;;;;6.87;3.63;;;15.90;99.90;;;;;;5103063;28;20205;-44
2021/06/24 00:43:08;;;;;;;2.97;2.77;;;15.90;99.90;;;;;;5106814;28;20217;-44
2021/06/24 00:45:35;;;;;;;3.80;2.70;;;15.90;99.90;;;;;;5092449;28;20221;-46
2021/06/24 00:48:03;;;;;;;5.93;2.97;;;15.90;99.90;;;;;;5104577;28;20271;-45
2021/06/24 00:50:29;;;;;;;5.40;2.40;;;15.90;99.90;;;;;;5101269;28;20243;-44
2021/06/24 00:52:57;;;;;;;4.50;3.30;;;15.90;99.90;;;;;;5091141;28;20218;-44
2021/06/24 00:58:06;;;;;;;3.60;3.07;;;15.80;99.90;;;;;;5104583;28;20185;-50
2021/06/24 01:00:33;;;;;;;3.77;3.30;;;15.80;99.90;;;;;;5086993;28;20213;-47
2021/06/24 01:03:00;;;;;;;4.23;3.17;;;15.80;99.90;;;;;;5105225;28;20248;-46
2021/06/24 01:05:27;;;;;;;4.00;2.73;;;15.70;99.90;;;;;;5099859;28;20222;-44
2021/06/24 01:07:54;;;;;;;7.07;3.70;;;15.80;99.90;;;;;;5099197;28;20210;-45
2021/06/24 01:10:24;;;;;;;7.27;3.30;;;15.80;99.90;;;;;;5088480;28;20209;-50
2021/06/24 01:12:51;;;;;;;3.43;3.07;;;15.80;99.90;;;;;;5105551;28;20270;-44
2021/06/24 01:15:20;;;;;;;4.20;3.20;;;15.80;99.90;;;;;;5090558;28;20208;-53
2021/06/24 01:17:48;;;;;;;3.00;2.80;;;15.70;99.90;;;;;;5099980;28;20227;-46
2021/06/24 01:20:16;;;;;;;5.90;3.70;;;15.70;99.90;;;;;;5102221;28;20283;-50
2021/06/24 01:22:44;;;;;;;4.50;3.40;;;15.70;99.90;;;;;;5102290;28;20205;-49
2021/06/24 01:25:13;;;;;;;5.50;3.20;;;15.70;99.90;;;;;;5096579;28;20219;-49
2021/06/24 01:27:40;;;;;;;7.73;3.37;;;15.70;99.90;;;;;;5094192;28;20216;-51
2021/06/24 01:30:09;;;;;;;6.73;3.33;;;15.70;99.90;;;;;;5095890;28;20204;-47
2021/06/24 01:32:42;;;;;;;8.23;3.20;;;15.70;99.90;;;;;;5085222;28;20602;-50
2021/06/24 01:35:10;;;;;;;6.67;4.13;;;15.70;99.90;;;;;;5102499;28;20231;-45
2021/06/24 01:37:37;;;;;;;3.93;3.40;;;15.60;99.90;;;;;;5102974;28;20200;-50
2021/06/24 01:40:05;;;;;;;5.33;3.40;;;15.60;99.90;;;;;;5094592;28;20246;-46
2021/06/24 01:42:33;;;;;;;3.27;2.90;;;15.60;99.90;;;;;;5104137;28;20798;-49
2021/06/24 01:45:02;;;;;;;5.07;3.23;;;15.70;99.90;;;;;;5088999;28;20209;-45
2021/06/24 01:47:28;;;;;;;5.70;3.23;;;15.70;99.90;;;;;;5097323;27;20218;-45
2021/06/24 01:49:57;;;;;;;6.03;4.37;;;15.70;99.90;;;;;;5095496;28;20215;-44
2021/06/24 01:52:23;;;;;;;5.87;3.33;;;15.70;99.90;;;;;;5099682;28;20792;-44
2021/06/24 01:54:50;;;;;;;6.67;3.40;;;15.60;99.90;;;;;;5092619;28;20928;-47
2021/06/24 01:57:18;;;;;;;4.90;3.17;;;15.60;99.90;;;;;;5104331;28;20282;-49
2021/06/24 01:59:48;;;;;;;8.47;3.43;;;15.60;99.90;;;;;;5099736;28;20197;-50
2021/06/24 02:02:16;;;;;;;4.20;3.03;;;15.60;99.90;;;;;;5088250;28;20690;-45
2021/06/24 02:05:08;;;;;;;5.67;3.53;;;15.60;99.90;;;;;;5102911;28;20189;-45
2021/06/24 02:07:42;;;;;;;4.63;3.40;;;15.60;99.90;;;;;;5097498;28;20640;-50
2021/06/24 02:10:25;;;;;;;4.33;3.20;;;15.50;99.90;;;;;;5095396;28;20212;-46
2021/06/24 02:12:57;;;;;;;5.17;3.43;;;15.50;99.90;;;;;;5099752;28;20209;-44
2021/06/24 02:15:25;;;;;;;4.27;3.60;;;15.50;99.90;;;;;;5103809;28;20198;-45
2021/06/24 02:17:52;;;;;;;7.77;3.37;;;15.50;99.90;;;;;;5082848;28;20197;-46
2021/06/24 02:20:27;;;;;;;3.77;3.27;;;15.50;99.90;;;;;;5107207;28;20597;-47
2021/06/24 02:23:11;;;;;;;3.87;3.50;;;15.50;99.90;;;;;;5106532;28;20216;-45
2021/06/24 02:25:43;;;;;;;7.33;3.40;;;15.40;99.90;;;;;;5102370;28;20204;-53
2021/06/24 02:28:15;;;;;;;6.83;3.77;;;15.40;99.90;;;;;;5106739;28;20221;-46
2021/06/24 02:31:05;;;;;;;5.73;3.37;;;15.40;99.90;;;;;;5106827;28;20231;-48
2021/06/24 02:33:33;;;;;;;5.97;3.40;;;15.40;99.90;;;;;;5091056;28;20228;-50
2021/06/24 02:36:13;;;;;;;5.63;3.40;;;15.40;99.90;;;;;;5106867;28;20681;-48
2021/06/24 02:38:40;;;;;;;6.87;3.87;;;15.30;99.90;;;;;;5105560;28;20200;-50
2021/06/24 02:41:06;;;;;;;5.37;4.20;;;15.30;99.90;;;;;;5105632;28;20280;-44
2021/06/24 02:43:34;;;;;;;5.37;3.47;;;15.30;99.90;;;;;;5097781;28;20216;-49
2021/06/24 02:46:01;;;;;;;5.60;3.47;;;15.30;99.90;;;;;;5105690;28;20193;-45
2021/06/24 02:48:39;;;;;;;4.67;3.73;;;15.30;99.90;;;;;;5087775;28;20316;-52
2021/06/24 02:51:06;;;;;;;5.73;3.37;;;15.30;99.90;;;;;;5105104;28;20192;-47
2021/06/24 02:53:45;;;;;;;5.33;4.40;;;15.30;99.90;;;;;;5101854;28;20227;-48
2021/06/24 02:56:14;;;;;;;8.37;4.07;;;15.20;99.90;;;;;;5108799;28;20258;-47
2021/06/24 02:58:44;;;;;;;4.77;3.93;;;15.20;99.90;;;;;;5096845;27;20692;-47
2021/06/24 03:01:27;;;;;;;7.70;3.80;;;15.20;99.90;;;;;;5108314;28;20209;-46
2021/06/24 03:04:02;;;;;;;6.73;3.97;;;15.20;99.90;;;;;;5089382;28;20445;-47
2021/06/24 03:06:30;;;;;;;6.10;3.70;;;15.20;99.90;;;;;;5098419;28;20193;-48
2021/06/24 03:08:57;;;;;;;5.37;4.07;;;15.20;99.90;;;;;;5104033;28;20193;-45
2021/06/24 03:11:29;;;;;;;5.63;4.00;;;15.20;99.90;;;;;;5107248;28;20227;-50
2021/06/24 03:13:56;;;;;;;5.97;3.67;;;15.20;99.90;;;;;;5097628;28;20849;-45
2021/06/24 03:16:29;;;;;;;4.80;3.83;;;15.20;99.90;;;;;;5100575;28;20238;-50
2021/06/24 03:18:57;;;;;;;5.00;3.40;;;15.20;99.90;;;;;;5088144;28;20336;-45
2021/06/24 03:21:26;;;;;;;6.10;3.40;;;15.30;99.90;;;;;;5107147;28;20206;-45
2021/06/24 03:23:53;;;;;;;5.30;3.83;;;15.30;99.90;;;;;;5103842;28;20251;-47
2021/06/24 03:26:20;;;;;;;4.70;3.43;;;15.30;99.90;;;;;;5107781;28;20205;-45
2021/06/24 03:28:52;;;;;;;8.63;4.13;;;15.30;99.90;;;;;;5094423;28;20334;-45
2021/06/24 03:31:23;;;;;;;4.50;3.70;;;15.30;99.90;;;;;;5105297;28;20533;-45
2021/06/24 03:33:51;;;;;;;6.07;3.70;;;15.30;99.90;;;;;;5088378;28;21173;-49
2021/06/24 03:36:18;;;;;;;4.60;3.40;;;15.30;99.90;;;;;;5107597;28;20666;-46
2021/06/24 03:38:48;;;;;;;4.43;3.63;;;15.30;99.90;;;;;;5095850;28;20204;-52
2021/06/24 03:41:23;;;;;;;5.93;3.10;;;15.30;99.90;;;;;;5107094;28;20202;-54
2021/06/24 03:43:51;;;;;;;5.73;4.30;;;15.30;99.90;;;;;;5097977;28;21050;-45
2021/06/24 03:46:18;;;;;;;4.13;3.73;;;15.30;99.90;;;;;;5094140;28;20300;-44
2021/06/24 03:48:46;;;;;;;7.80;3.60;;;15.20;99.90;;;;;;5099739;28;20303;-46
2021/06/24 03:51:17;;;;;;;6.63;4.00;;;15.20;99.90;;;;;;5090321;28;20220;-47
2021/06/24 03:53:44;;;;;;;5.17;3.40;;;15.30;99.90;;;;;;5099228;28;20208;-46
2021/06/24 03:56:13;;;;;;;5.27;4.43;;;15.30;99.90;;;;;;5105815;28;20221;-48
2021/06/24 03:58:46;;;;;;;3.53;3.13;;;15.20;99.90;;;;;;5101621;28;20200;-47
2021/06/24 04:01:14;;;;;;;6.70;3.50;;;15.30;99.90;;;;;;5086885;28;20233;-46
2021/06/24 04:03:41;;;;;;;6.93;4.00;;;15.30;99.90;;;;;;5101416;28;20375;-45
2021/06/24 04:06:10;;;;;;;6.77;3.80;;;15.30;99.90;;;;;;5089124;28;20202;-46
2021/06/24 04:08:37;;;;;;;5.60;3.47;;;15.20;99.90;;;;;;5095482;28;20205;-49
2021/06/24 04:11:14;;;;;;;5.73;3.43;;;15.20;99.90;;;;;;5107566;28;20715;-45
2021/06/24 04:13:45;;;;;;;5.97;3.53;;;15.20;99.90;;;;;;5102048;28;20205;-46
2021/06/24 04:16:37;;;;;;;5.60;3.57;;;15.20;99.90;;;;;;5087415;28;20684;-50
2021/06/24 04:19:04;;;;;;;9.10;4.20;;;15.20;99.90;;;;;;5106184;28;20574;-46
2021/06/24 04:21:31;;;;;;;6.23;4.07;;;15.20;99.90;;;;;;5093647;28;20209;-50
2021/06/24 04:24:00;;;;;;;3.40;3.10;;;15.20;99.90;;;;;;5101496;28;20220;-46
2021/06/24 04:26:28;;;;;;;5.57;3.60;;;15.30;99.90;;;;;;5105567;28;20659;-49
2021/06/24 04:28:55;;;;;;;6.50;3.10;;;15.30;99.90;;;;;;5104609;28;20815;-45
2021/06/24 04:31:22;;;;;;;5.60;3.77;;;15.30;99.90;;;;;;5098723;28;20198;-51
2021/06/24 04:33:50;;;;;;;6.27;3.73;;;15.30;99.90;;;;;;5101792;28;20724;-45
2021/06/24 04:36:30;;;;;;;6.87;3.30;;;15.30;99.90;;;;;;5093322;28;20221;-51
2021/06/24 04:39:06;;;;;;;4.97;3.27;;;15.30;99.90;;;;;;5103121;28;20192;-45
2021/06/24 04:41:35;;;;;;;6.10;3.10;;;15.30;99.90;;;;;;5103048;28;20197;-51
2021/06/24 04:44:06;;;;;;;9.10;3.53;;;15.30;99.90;;;;;;5105276;28;20217;-45
2021/06/24 04:46:35;;;;;;;3.63;3.27;;;15.30;99.90;;;;;;5095052;28;20674;-49
2021/06/24 04:49:04;;;;;;;3.40;3.00;;;15.20;99.90;;;;;;5106077;28;20244;-46
2021/06/24 04:52:03;;;;;;;9.27;3.27;;;15.30;99.90;;;;;;5103110;28;20230;-47
2021/06/24 04:54:39;;;;;;;10.47;4.47;;;15.20;99.90;;;;;;5082234;28;20296;-50
2021/06/24 04:57:07;;;;;;;5.60;3.53;;;15.30;99.90;;;;;;5104593;28;20213;-48
2021/06/24 05:00:06;;;;;;;6.80;3.30;;;15.30;99.90;;;;;;5104213;28;20197;-45
2021/06/24 05:02:51;;;;;;;5.33;3.83;;;15.40;99.90;;;;;;5092926;28;20220;-45
2021/06/24 05:05:25;;;;;;;4.03;3.30;;;15.30;99.90;;;;;;5104794;28;20200;-50
2021/06/24 05:07:52;;;;;;;4.30;2.80;;;15.40;99.90;;;;;;5102906;28;20201;-46
2021/06/24 05:10:19;;;;;;;5.77;3.10;;;15.40;99.90;;;;;;5090313;28;20201;-45
2021/06/24 05:12:46;;;;;;;4.87;3.10;;;15.40;99.90;;;;;;5101972;28;20961;-45
2021/06/24 05:15:14;;;;;;;5.33;2.47;;;15.40;99.90;;;;;;5105792;28;20193;-47
2021/06/24 05:17:41;;;;;;;5.27;2.63;;;15.40;99.90;;;;;;5092437;28;20934;-46
2021/06/24 05:20:10;;;;;;;3.23;2.93;;;15.40;99.90;;;;;;5102534;28;20197;-46
2021/06/24 05:22:37;;;;;;;4.70;3.00;;;15.40;99.90;;;;;;5101563;28;20307;-52
2021/06/24 05:25:04;;;;;;;5.70;2.83;;;15.40;99.90;;;;;;5086299;28;20578;-45
2021/06/24 05:27:31;;;;;;;6.57;3.23;;;15.40;99.90;;;;;;5102100;28;20201;-48
2021/06/24 05:29:59;;;;;;;3.83;3.07;;;15.40;99.90;;;;;;5103759;28;20177;-45
2021/06/24 05:32:25;;;;;;;3.73;2.27;;;15.50;99.90;;;;;;5103887;28;20225;-49
2021/06/24 05:34:52;;;;;;;3.17;2.37;;;15.50;99.90;;;;;;5092909;28;20185;-45
2021/06/24 05:37:19;;;;;;;5.40;2.80;;;15.50;99.90;;;;;;5104230;28;20288;-47
2021/06/24 05:39:45;;;;;;;5.43;2.83;;;15.50;99.90;;;;;;5100185;28;20189;-45
2021/06/24 05:42:12;;;;;;;6.87;3.43;;;15.50;99.90;;;;;;5089570;28;20308;-48
2021/06/24 05:44:39;;;;;;;5.43;2.50;;;15.60;99.90;;;;;;5100724;28;20276;-48
2021/06/24 05:47:06;;;;;;;6.37;2.60;;;15.60;99.90;;;;;;5103458;28;20197;-47
2021/06/24 05:49:33;;;;;;;3.67;2.30;;;15.70;99.90;;;;;;5094455;28;20213;-49
2021/06/24 05:52:00;;;;;;;3.00;2.40;;;15.80;99.90;;;;;;5100301;28;20200;-45
2021/06/24 05:54:27;;;;;;;2.93;2.00;;;15.90;99.90;;;;;;5102885;28;20668;-50
2021/06/24 05:56:54;;;;;;;3.40;2.13;;;15.90;99.90;;;;;;5086844;28;20193;-46
2021/06/24 05:59:20;;;;;;;3.40;2.50;;;16.00;99.90;;;;;;5103630;28;20188;-48
2021/06/24 06:01:48;;;;;;;4.67;2.30;;;16.00;99.90;;;;;;5100715;28;20181;-46
2021/06/24 06:04:16;;;;;;;2.83;2.50;;;16.10;99.90;;;;;;5104797;28;20193;-45
2021/06/24 06:06:42;;;;;;;4.67;2.40;;;16.10;99.90;;;;;;5089796;28;20201;-47
2021/06/24 06:09:09;;;;;;;5.00;2.53;;;16.20;99.90;;;;;;5103458;28;20303;-45
2021/06/24 06:11:36;;;;;;;4.90;2.10;;;16.20;99.90;;;;;;5088151;28;20202;-51
2021/06/24 06:14:03;;;;;;;4.87;2.83;;;16.30;99.90;;;;;;5101911;28;20217;-48
2021/06/24 06:16:30;;;;;;;2.77;2.07;;;16.30;99.90;;;;;;5098851;28;20200;-50
2021/06/24 06:18:57;;;;;;;3.67;2.10;;;16.40;99.90;;;;;;5102061;28;20297;-48
2021/06/24 06:21:28;;;;;;;5.17;2.23;;;16.30;99.90;;;;;;5092082;28;20275;-48
2021/06/24 06:23:55;;;;;;;6.43;2.50;;;16.40;99.90;;;;;;5101999;28;20209;-46
2021/06/24 06:26:24;;;;;;;2.50;2.23;;;16.40;99.90;;;;;;5103604;28;20185;-49
2021/06/24 06:28:51;;;;;;;3.70;2.07;;;16.30;99.90;;;;;;5084946;28;20249;-45
2021/06/24 06:31:17;;;;;;;4.03;2.80;;;16.30;99.90;;;;;;5103754;28;20250;-45
2021/06/24 06:33:44;;;;;;;6.10;2.27;;;16.40;99.90;;;;;;5082897;28;20232;-51
2021/06/24 06:36:11;;;;;;;5.33;2.47;;;16.40;99.90;;;;;;5094300;27;20257;-48
2021/06/24 06:38:39;;;;;;;3.50;2.27;;;16.40;99.90;;;;;;5098355;28;20200;-50
2021/06/24 06:41:05;;;;;;;5.07;2.13;;;16.40;99.90;;;;;;5101554;28;20215;-47
2021/06/24 06:43:33;;;;;;;2.30;2.10;;;16.50;99.90;;;;;;5097142;27;20285;-48
2021/06/24 06:46:00;;;;;;;4.57;2.60;;;16.50;99.90;;;;;;5092750;28;20193;-52
2021/06/24 06:48:28;;;;;;;4.40;2.43;;;16.60;99.90;;;;;;5098938;28;20908;-47
2021/06/24 06:50:55;;;;;;;4.80;2.30;;;16.60;99.90;;;;;;5093852;28;20204;-50
2021/06/24 06:53:23;;;;;;;2.83;2.20;;;16.70;99.90;;;;;;5088129;28;20228;-45
2021/06/24 06:55:51;;;;;;;3.00;2.23;;;16.70;99.90;;;;;;5112571;28;20283;-52
2021/06/24 06:58:18;;;;;;;5.20;2.57;;;16.80;99.90;;;;;;5105490;27;20192;-47
2021/06/24 07:00:44;;;;;;;3.47;2.00;;;16.80;99.90;;;;;;5082160;28;20550;-56
2021/06/24 07:03:11;;;;;;;4.00;2.13;;;16.80;99.90;;;;;;5101721;28;20975;-50
2021/06/24 07:05:38;;;;;;;2.77;1.73;;;16.90;99.90;;;;;;5101139;27;20636;-45
2021/06/24 07:08:05;;;;;;;4.50;2.67;;;17.00;99.90;;;;;;5101857;27;20239;-45
2021/06/24 07:10:32;;;;;;;3.70;2.87;;;17.00;99.90;;;;;;5106467;27;20220;-46
2021/06/24 07:13:00;;;;;;;6.00;2.17;;;17.10;99.90;;;;;;5105204;27;20221;-50
2021/06/24 07:15:27;;;;;;;2.50;1.77;;;17.10;99.90;;;;;;5100067;27;20208;-45
2021/06/24 07:17:53;;;;;;;4.10;2.07;;;17.10;99.90;;;;;;5110481;27;20702;-52
2021/06/24 07:20:20;;;;;;;2.50;1.77;;;17.30;99.90;;;;;;5100720;28;20772;-44
2021/06/24 07:22:47;;;;;;;3.67;2.30;;;17.40;99.90;;;;;;5104129;27;20557;-52
2021/06/24 07:25:16;;;;;;;2.17;2.07;;;17.40;99.90;;;;;;5105163;27;20318;-47
2021/06/24 07:27:44;;;;;;;3.70;1.93;;;17.40;99.90;;;;;;5110690;27;20771;-49
2021/06/24 07:30:14;;;;;;;4.13;2.13;;;17.50;99.90;;;;;;5113813;27;20278;-46
2021/06/24 07:32:40;;;;;;;2.27;1.77;;;17.60;99.90;;;;;;5086869;28;20701;-50
2021/06/24 07:35:08;;;;;;;2.97;1.40;;;17.60;99.90;;;;;;5097739;28;23031;-46
2021/06/24 07:37:35;;;;;;;4.43;2.10;;;17.70;99.90;;;;;;5103178;27;20206;-45
2021/06/24 07:40:01;;;;;;;2.33;1.80;;;17.80;99.90;;;;;;5104396;27;20189;-45
2021/06/24 07:42:28;;;;;;;3.43;1.67;;;17.80;99.90;;;;;;5088597;27;20212;-47
2021/06/24 07:44:55;;;;;;;4.77;2.50;;;17.90;99.90;;;;;;5114243;27;20564;-51
2021/06/24 07:47:23;;;;;;;3.93;2.00;;;18.00;99.90;;;;;;5097114;27;20718;-48
2021/06/24 07:49:49;;;;;;;4.17;1.80;;;18.00;99.90;;;;;;5116067;27;20639;-66
2021/06/24 07:52:16;;;;;;;5.80;2.23;;;18.10;99.90;;;;;;5098883;27;20275;-64
2021/06/24 07:54:43;;;;;;;2.73;1.80;;;18.20;99.90;;;;;;5102577;27;20221;-63
2021/06/24 07:57:10;;;;;;;1.33;1.23;;;18.30;99.90;;;;;;5102012;27;21706;-64
2021/06/24 07:59:37;;;;;;;3.37;1.67;;;18.50;99.90;;;;;;5107939;27;20191;-63
2021/06/24 08:02:05;;;;;;;2.80;1.93;;;18.60;99.90;;;;;;5084754;28;22237;-64
2021/06/24 08:04:33;;;;;;;1.80;1.70;;;18.60;99.90;;;;;;5104609;28;20201;-63
2021/06/24 08:07:00;;;;;;;4.73;2.43;;;18.70;99.90;;;;;;5097391;28;20198;-45
2021/06/24 08:09:27;;;;;;;1.97;1.70;;;18.80;99.90;;;;;;5091911;28;20210;-45
2021/06/24 08:11:54;;;;;;;4.10;2.00;;;18.80;99.90;;;;;;5094534;28;20236;-51
2021/06/24 08:14:23;;;;;;;2.13;1.60;;;18.70;99.90;;;;;;5102119;27;20200;-46
2021/06/24 08:16:50;;;;;;;1.93;1.83;;;18.60;99.90;;;;;;5109232;27;20818;-51
2021/06/24 08:19:16;;;;;;;3.07;1.60;;;18.70;99.90;;;;;;5116135;27;20200;-45
2021/06/24 08:21:44;;;;;;;1.70;1.60;;;18.60;99.90;;;;;;5103476;27;20300;-49
2021/06/24 08:24:11;;;;;;;5.50;2.10;;;18.60;99.90;;;;;;5099223;27;20236;-50
2021/06/24 08:26:38;;;;;;;2.03;1.60;;;18.60;99.90;;;;;;5104008;27;20198;-50
2021/06/24 08:29:04;;;;;;;2.07;1.83;;;18.60;99.90;;;;;;5098102;27;20221;-45
2021/06/24 08:31:31;;;;;;;2.37;1.90;;;18.70;99.90;;;;;;5121988;27;20225;-46
2021/06/24 08:33:59;;;;;;;2.80;1.70;;;18.90;99.90;;;;;;5096718;27;20221;-49
2021/06/24 08:36:25;;;;;;;2.87;1.80;;;19.00;99.90;;;;;;5121870;27;20558;-46
2021/06/24 08:38:54;;;;;;;2.37;1.60;;;19.10;99.90;;;;;;5096017;27;20615;-53
2021/06/24 08:41:25;;;;;;;3.03;1.90;;;19.30;99.90;;;;;;5114732;27;20768;-48
2021/06/24 08:43:52;;;;;;;2.37;1.90;;;19.40;99.90;;;;;;5112216;27;20584;-53
2021/06/24 08:46:20;;;;;;;2.33;2.10;;;19.40;99.90;;;;;;5095879;27;20209;-46
2021/06/24 08:48:48;;;;;;;2.57;2.03;;;19.40;99.90;;;;;;5095406;28;20227;-53
2021/06/24 08:51:14;;;;;;;3.23;2.10;;;19.50;99.90;;;;;;5092374;28;20204;-46
2021/06/24 08:53:42;;;;;;;3.90;1.77;;;19.50;99.90;;;;;;5092833;28;20227;-51
2021/06/24 08:56:10;;;;;;;1.83;1.73;;;19.60;99.90;;;;;;5083346;28;20274;-46
2021/06/24 08:58:37;;;;;;;2.80;2.40;;;19.60;99.90;;;;;;5099026;27;20581;-49
2021/06/24 09:01:03;;;;;;;3.00;1.87;;;19.60;99.90;;;;;;5099224;27;20200;-47
2021/06/24 09:03:40;;;;;;;3.00;2.00;;;19.70;99.90;;;;;;5101624;27;20710;-49
2021/06/24 09:06:10;;;;;;;4.30;3.30;;;19.80;99.90;;;;;;5096374;27;20899;-47
2021/06/24 09:08:40;;;;;;;3.70;2.27;;;19.70;99.90;;;;;;5084540;28;20229;-47
2021/06/24 09:11:14;;;;;;;4.23;2.53;;;19.80;99.90;;;;;;5081005;28;20205;-48
2021/06/24 09:13:41;;;;;;;2.70;2.20;;;19.80;99.90;;;;;;5093143;28;20261;-52
2021/06/24 09:16:19;;;;;;;2.40;2.20;;;19.90;99.90;;;;;;5082871;28;20204;-49
2021/06/24 09:18:46;;;;;;;4.43;3.13;;;19.90;99.90;;;;;;5097105;28;20284;-50
2021/06/24 09:21:19;;;;;;;4.30;3.87;;;19.90;99.90;;;;;;5086571;28;20205;-47
2021/06/24 09:23:48;;;;;;;2.30;2.10;;;20.00;99.90;;;;;;5092087;27;20220;-48
2021/06/24 09:26:16;;;;;;;3.90;3.30;;;20.00;99.90;;;;;;5103081;27;20297;-45
2021/06/24 09:28:44;;;;;;;2.77;2.53;;;20.00;99.90;;;;;;5109414;27;20201;-49
2021/06/24 09:31:25;;;;;;;2.47;2.27;;;19.90;99.90;;;;;;5093124;27;20328;-47
2021/06/24 09:33:53;;;;;;;2.97;2.63;;;19.90;99.90;;;;;;5107736;27;20253;-49
2021/06/24 09:36:34;;;;;;;4.23;2.47;;;19.80;99.90;;;;;;5101761;28;20200;-46
2021/06/24 09:39:03;;;;;;;2.43;2.23;;;19.80;99.90;;;;;;5094736;27;20866;-46
2021/06/24 09:41:31;;;;;;;3.80;1.90;;;19.90;99.90;;;;;;5088121;28;20199;-48
2021/06/24 09:43:58;;;;;;;4.97;2.63;;;19.80;99.90;;;;;;5095429;28;20217;-47
2021/06/24 09:46:26;;;;;;;4.33;2.20;;;19.80;99.90;;;;;;5096525;28;20205;-49
2021/06/24 09:48:58;;;;;;;3.97;2.43;;;19.80;99.90;;;;;;5093443;28;20624;-51
2021/06/24 09:51:27;;;;;;;2.27;2.17;;;19.80;99.90;;;;;;5101993;28;20189;-45
2021/06/24 09:53:57;;;;;;;3.47;2.23;;;19.80;99.90;;;;;;5080054;28;20220;-50
2021/06/24 09:56:30;;;;;;;4.73;2.40;;;19.70;99.90;;;;;;5094665;28;20250;-47
2021/06/24 09:59:00;;;;;;;3.60;2.60;;;19.70;99.90;;;;;;5095267;28;20193;-48
2021/06/24 10:01:31;;;;;;;3.20;3.00;;;19.80;99.90;;;;;;5090836;28;20287;-51
2021/06/24 10:04:00;;;;;;;2.63;2.43;;;19.80;99.90;;;;;;5092264;28;20560;-52
2021/06/24 10:06:29;;;;;;;2.93;2.63;;;19.90;99.90;;;;;;5102730;28;20193;-47
2021/06/24 10:08:56;;;;;;;5.17;3.40;;;19.90;99.90;;;;;;5083974;28;20737;-47
2021/06/24 10:11:24;;;;;;;3.93;3.50;;;19.90;99.90;;;;;;5103626;28;20283;-45
2021/06/24 10:13:51;;;;;;;3.50;3.00;;;20.00;99.90;;;;;;5092783;28;20870;-49
2021/06/24 10:16:19;;;;;;;4.83;3.60;;;20.00;99.90;;;;;;5094158;28;20288;-45
2021/06/24 10:18:47;;;;;;;4.57;3.97;;;20.10;99.90;;;;;;5089214;28;20230;-48
2021/06/24 10:21:15;;;;;;;5.50;3.80;;;20.00;99.90;;;;;;5080386;28;20419;-45
2021/06/24 10:23:49;;;;;;;4.37;3.53;;;19.70;99.90;;;;;;5080625;28;20213;-47
2021/06/24 10:26:16;;;;;;;4.37;3.50;;;19.80;99.90;;;;;;5100859;28;20189;-48
2021/06/24 10:28:43;;;;;;;6.20;3.73;;;19.80;99.90;;;;;;5092020;28;20201;-49
2021/06/24 10:31:40;;;;;;;4.20;3.80;;;19.80;99.90;;;;;;5094930;28;20273;-46
2021/06/24 10:34:07;;;;;;;4.10;3.70;;;19.80;99.90;;;;;;5074496;28;20224;-45
2021/06/24 10:36:34;;;;;;;6.60;3.77;;;19.90;99.90;;;;;;5079597;28;20562;-48
2021/06/24 10:39:02;;;;;;;3.90;3.37;;;20.00;99.90;;;;;;5079461;28;24620;-49
2021/06/24 10:42:08;;;;;;;4.10;3.70;;;20.20;99.90;;;;;;5100222;28;20193;-47
2021/06/24 10:44:55;;;;;;;4.97;3.33;;;20.20;99.90;;;;;;5093828;28;20199;-48
2021/06/24 10:47:31;;;;;;;4.80;3.67;;;20.40;99.90;;;;;;5098376;28;20292;-47
2021/06/24 10:50:37;;;;;;;3.83;3.53;;;20.40;99.90;;;;;;5098243;28;20201;-45
2021/06/24 10:53:53;;;;;;;3.60;3.30;;;20.30;99.90;;;;;;5078074;28;20217;-47
2021/06/24 10:56:28;;;;;;;3.70;3.40;;;20.10;99.90;;;;;;5081135;28;20209;-46
2021/06/24 10:58:57;;;;;;;4.23;3.93;;;20.10;99.90;;;;;;5095438;28;20907;-50
2021/06/24 11:01:40;;;;;;;5.20;4.10;;;20.00;99.90;;;;;;5088141;28;20234;-49
2021/06/24 11:04:09;;;;;;;4.37;3.53;;;19.90;99.90;;;;;;5091680;28;20233;-49
2021/06/24 11:06:41;;;;;;;5.10;3.67;;;19.80;99.90;;;;;;5087992;27;20361;-47
2021/06/24 11:09:15;;;;;;;3.00;2.80;;;19.70;99.90;;;;;;5093729;27;20943;-47
2021/06/24 11:11:44;;;;;;;4.13;3.00;;;19.80;99.90;;;;;;5112229;27;20278;-46
2021/06/24 11:14:14;;;;;;;3.97;2.50;;;19.90;99.90;;;;;;5090436;28;20234;-49
2021/06/24 11:16:41;;;;;;;3.77;2.87;;;20.00;99.90;;;;;;5097469;28;20250;-48
2021/06/24 11:19:10;;;;;;;3.90;3.50;;;20.20;99.90;;;;;;5091688;28;20241;-47
2021/06/24 11:21:57;;;;;;;3.87;3.23;;;20.40;99.90;;;;;;5082982;28;20382;-50
2021/06/24 11:24:30;;;;;;;4.77;2.80;;;20.50;99.90;;;;;;5095718;28;20255;-46
2021/06/24 11:26:58;;;;;;;4.03;3.07;;;20.60;99.90;;;;;;5090540;28;20205;-45
2021/06/24 11:29:41;;;;;;;3.57;2.97;;;20.60;99.90;;;;;;5095448;28;20197;-47
2021/06/24 11:32:11;;;;;;;3.13;2.90;;;20.70;99.90;;;;;;5091394;28;20240;-47
2021/06/24 11:34:46;;;;;;;4.80;3.63;;;20.70;99.90;;;;;;5092702;28;20880;-45
2021/06/24 11:37:15;;;;;;;3.57;3.27;;;20.70;99.90;;;;;;5099353;28;20212;-47
2021/06/24 11:39:44;;;;;;;3.97;3.57;;;20.60;99.90;;;;;;5098903;28;20193;-46
2021/06/24 11:42:12;;;;;;;5.00;3.27;;;20.60;99.90;;;;;;5088933;28;20594;-46
2021/06/24 11:44:44;;;;;;;4.07;3.47;;;20.70;99.90;;;;;;5095569;28;20293;-45
2021/06/24 11:47:16;;;;;;;4.77;3.77;;;20.70;99.80;;;;;;5091874;27;20201;-50
2021/06/24 12:03:32;;;;;;;3.17;2.87;;;21.00;99.00;;;;;;5048621;28;20229;-47
2021/06/24 12:05:59;;;;;;;4.67;3.43;;;21.00;99.30;;;;;;5105443;28;20194;-47
2021/06/24 12:08:28;;;;;;;4.67;3.37;;;20.80;99.00;;;;;;5094547;28;20194;-45
2021/06/24 12:11:05;;;;;;;3.17;2.77;;;21.10;99.40;;;;;;5104186;28;20270;-47
2021/06/24 12:13:32;;;;;;;4.53;3.20;;;21.30;98.30;;;;;;5081178;28;20215;-46
2021/06/24 12:16:01;;;;;;;4.10;3.80;;;21.40;98.40;;;;;;5105751;28;20246;-46
2021/06/24 12:18:38;;;;;;;3.30;3.00;;;21.40;97.50;;;;;;5085821;28;20322;-46
2021/06/24 12:21:07;;;;;;;3.23;2.83;;;21.20;98.20;;;;;;5103016;28;20272;-47
2021/06/24 12:23:40;;;;;;;4.67;3.20;;;21.20;98.50;;;;;;5105588;28;20220;-45
2021/06/24 12:26:07;;;;;;;3.07;2.83;;;21.20;97.70;;;;;;5079293;28;20197;-47
2021/06/24 12:28:34;;;;;;;3.60;2.90;;;21.00;97.60;;;;;;5076880;28;20205;-50
2021/06/24 12:31:03;;;;;;;4.30;3.50;;;21.00;98.10;;;;;;5101358;28;20972;-47
2021/06/24 12:33:29;;;;;;;5.17;3.70;;;21.00;98.50;;;;;;5097407;28;20228;-48
2021/06/24 12:35:56;;;;;;;5.47;3.67;;;21.00;98.40;;;;;;5101344;28;20942;-46
2021/06/24 12:38:25;;;;;;;4.03;3.57;;;20.80;98.50;;;;;;5105238;28;20193;-45
2021/06/24 12:40:53;;;;;;;3.90;3.17;;;20.70;98.70;;;;;;5093065;28;20208;-49
2021/06/24 12:43:22;;;;;;;3.37;2.40;;;20.80;99.00;;;;;;5105357;28;20247;-45
2021/06/24 12:45:52;;;;;;;5.93;3.27;;;20.80;99.70;;;;;;5082381;28;20666;-46
2021/06/24 12:48:28;;;;;;;4.37;3.00;;;20.90;99.10;;;;;;5095976;28;20202;-45
2021/06/24 12:50:55;;;;;;;3.43;3.17;;;20.80;98.80;;;;;;5094459;28;20795;-45
2021/06/24 12:53:33;;;;;;;4.83;3.47;;;20.70;98.80;;;;;;5084847;28;20218;-49
2021/06/24 12:56:00;;;;;;;2.90;2.70;;;20.60;98.80;;;;;;5093917;28;20197;-46
2021/06/24 12:58:33;;;;;;;5.57;3.00;;;20.60;98.90;;;;;;5105053;28;20241;-46
2021/06/24 13:01:09;;;;;;;3.10;2.30;;;20.70;99.10;;;;;;5085414;28;20263;-45
2021/06/24 13:03:45;;;;;;;3.67;2.77;;;20.70;98.90;;;;;;5102031;28;20236;-46
2021/06/24 13:06:17;;;;;;;3.30;2.50;;;21.00;99.10;;;;;;5099148;28;20271;-48
2021/06/24 13:08:59;;;;;;;2.83;2.30;;;21.20;97.90;;;;;;5094703;28;20201;-47
2021/06/24 13:11:28;;;;;;;3.60;3.30;;;21.30;97.80;;;;;;5103818;28;20312;-47
2021/06/24 13:13:57;;;;;;;3.87;3.20;;;21.50;96.90;;;;;;5093365;28;20233;-49
2021/06/24 13:16:27;;;;;;;2.80;2.60;;;21.70;97.00;;;;;;5092423;27;20215;-45
2021/06/24 13:18:57;;;;;;;5.17;2.40;;;22.30;96.50;;;;;;5100129;27;20286;-48